Time;durP1;ratioP1;P1;durP2;ratioP2;P2;SDS_P1;SDS_P2;PMS_P1;PMS_P2;Temp;Humidity;BMP_temperature;BMP_pressure;BME280_temperature;BME280_humidity;BME280_pressure;Samples;Min_cycle;Max_cycle;Signal;HPM_P1;HPM_P2
2022/12/08 00:01:41;;;;;;;4.72;2.22;;;;;;;18.81;39.85;101038.16;5035434;28;21369;-67
2022/12/08 00:04:07;;;;;;;4.40;1.90;;;;;;;18.82;39.97;101039.84;5033871;28;20036;-66
2022/12/08 00:09:28;;;;;;;4.03;2.10;;;;;;;18.79;39.87;101032.16;5040298;28;20139;-67
2022/12/08 00:11:59;;;;;;;5.13;2.40;;;;;;;18.75;39.81;101025.44;5021710;28;20381;-66
2022/12/08 00:14:33;;;;;;;4.07;2.42;;;;;;;18.76;39.81;101024.47;5022154;28;20112;-68
2022/12/08 00:17:00;;;;;;;4.18;2.22;;;;;;;18.76;39.99;101024.47;5033473;28;20053;-67
2022/12/08 00:19:26;;;;;;;4.35;2.30;;;;;;;18.71;39.58;101014.28;5034750;28;20138;-68
2022/12/08 00:21:52;;;;;;;4.05;2.20;;;;;;;18.73;39.67;101016.81;5029210;28;20144;-67
2022/12/08 00:24:19;;;;;;;4.28;2.40;;;;;;;18.71;39.76;101013.44;5037062;28;20622;-67
2022/12/08 00:26:44;;;;;;;5.30;2.88;;;;;;;18.69;39.96;101010.91;5021453;28;20040;-67
2022/12/08 00:29:10;;;;;;;3.85;2.47;;;;;;;18.66;39.67;101001.47;5037200;28;20025;-66
2022/12/08 00:31:36;;;;;;;4.82;2.60;;;;;;;18.64;39.92;100998.13;5038475;28;20474;-67
2022/12/08 00:34:02;;;;;;;4.68;2.63;;;;;;;18.64;40.01;101002.53;5021655;28;20033;-67
2022/12/08 00:36:27;;;;;;;4.65;2.60;;;;;;;18.64;39.69;101003.41;5040241;28;20493;-67
2022/12/08 00:38:53;;;;;;;5.38;2.53;;;;;;;18.63;39.51;101003.53;5040906;28;20103;-66
2022/12/08 00:42:10;;;;;;;4.38;2.75;;;;;;;18.60;39.39;100995.84;5036591;28;20028;-69
2022/12/08 00:44:07;;;;;;;4.75;2.63;;;;;;;18.59;39.50;100989.72;5040365;28;20091;-67
2022/12/08 00:46:33;;;;;;;5.63;3.00;;;;;;;18.54;39.46;100985.78;5030950;28;20048;-68
2022/12/08 00:48:58;;;;;;;5.68;3.15;;;;;;;18.57;39.57;100991.66;5033185;28;20040;-67
2022/12/08 00:51:23;;;;;;;5.13;2.80;;;;;;;18.59;39.45;100991.53;5030911;28;20093;-67
2022/12/08 00:53:48;;;;;;;6.18;3.53;;;;;;;18.56;39.46;100989.13;5041332;28;20254;-68
2022/12/08 00:56:14;;;;;;;5.25;3.30;;;;;;;18.54;39.25;100986.63;5040628;28;20433;-67
2022/12/08 00:58:39;;;;;;;4.90;3.20;;;;;;;18.55;39.75;100983.03;5027422;28;20044;-68
2022/12/08 01:01:12;;;;;;;4.45;2.97;;;;;;;18.54;39.44;100983.16;5021460;28;20350;-67
2022/12/08 01:03:37;;;;;;;4.55;2.97;;;;;;;18.54;39.34;100981.34;5021135;28;20037;-68
2022/12/08 01:06:04;;;;;;;5.07;3.15;;;;;;;18.50;39.58;100974.66;5031356;28;20061;-66
2022/12/08 01:08:29;;;;;;;5.28;2.90;;;;;;;18.50;39.37;100979.94;5021196;28;20033;-68
2022/12/08 01:10:55;;;;;;;4.10;2.72;;;;;;;18.48;39.46;100977.41;5035213;28;20064;-66
2022/12/08 01:13:20;;;;;;;5.60;2.90;;;;;;;18.47;39.63;100973.09;5040755;28;20067;-66
2022/12/08 01:15:45;;;;;;;5.03;2.90;;;;;;;18.47;39.31;100961.69;5038754;28;20158;-68
2022/12/08 01:18:11;;;;;;;4.93;2.80;;;;;;;18.45;39.46;100961.81;5040884;28;20036;-67
2022/12/08 01:20:36;;;;;;;5.30;2.60;;;;;;;18.47;39.83;100969.63;5040852;28;20037;-68
2022/12/08 01:23:01;;;;;;;4.30;2.60;;;;;;;18.46;39.89;100963.47;5034093;28;20080;-65
2022/12/08 01:25:26;;;;;;;4.53;2.53;;;;;;;18.45;39.59;100955.69;5020592;28;20037;-67
2022/12/08 01:27:52;;;;;;;4.40;2.67;;;;;;;18.43;39.43;100958.44;5021043;28;20044;-68
2022/12/08 01:30:18;;;;;;;4.97;2.65;;;;;;;18.42;39.67;100964.72;5011695;28;20473;-68
2022/12/08 01:32:44;;;;;;;5.43;3.10;;;;;;;18.42;39.29;100955.94;5008231;28;20461;-67
2022/12/08 01:35:09;;;;;;;6.30;2.88;;;;;;;18.42;39.43;100955.94;5019444;28;20041;-67
2022/12/08 01:37:34;;;;;;;4.35;2.50;;;;;;;18.39;39.58;100957.03;5031512;28;20040;-68
2022/12/08 01:40:00;;;;;;;6.30;3.10;;;;;;;18.41;39.38;100956.91;5040250;28;20037;-68
2022/12/08 01:42:26;;;;;;;4.47;2.75;;;;;;;18.40;39.42;100963.13;5030756;28;20049;-68
2022/12/08 01:44:53;;;;;;;5.05;2.55;;;;;;;18.38;39.47;100951.88;5021050;28;20077;-68
2022/12/08 01:47:19;;;;;;;5.30;2.65;;;;;;;18.39;39.23;100962.31;5023960;28;20098;-68
2022/12/08 01:49:45;;;;;;;4.32;2.40;;;;;;;18.38;39.24;100954.53;5040806;28;20042;-69
2022/12/08 01:52:16;;;;;;;4.68;2.65;;;;;;;18.35;39.34;100958.22;5036060;28;20389;-68
2022/12/08 01:55:13;;;;;;;4.57;2.65;;;;;;;18.38;39.51;100955.34;4995255;28;20052;-68
2022/12/08 01:57:52;;;;;;;4.88;2.67;;;;;;;18.34;39.27;100942.53;5019095;28;20052;-68
2022/12/08 02:00:20;;;;;;;4.47;2.30;;;;;;;18.36;39.05;100946.72;5013354;28;20029;-68
2022/12/08 02:02:55;;;;;;;3.92;2.40;;;;;;;18.34;39.19;100948.66;5040468;28;20029;-68
2022/12/08 02:05:24;;;;;;;4.68;2.47;;;;;;;18.33;39.32;100946.97;5022091;28;20079;-68
2022/12/08 02:07:50;;;;;;;4.18;2.63;;;;;;;18.33;39.49;100946.97;5033930;28;20458;-68
2022/12/08 02:10:20;;;;;;;4.75;2.53;;;;;;;18.30;39.14;100944.56;5020075;28;20082;-69
2022/12/08 02:12:46;;;;;;;6.30;2.15;;;;;;;18.32;39.32;100942.63;5032687;28;20045;-67
2022/12/08 02:15:13;;;;;;;4.72;2.30;;;;;;;18.29;39.57;100937.59;5035345;28;20135;-67
2022/12/08 02:18:12;;;;;;;4.28;2.13;;;;;;;18.28;39.24;100930.69;5023648;28;20088;-67
2022/12/08 02:20:51;;;;;;;3.88;2.20;;;;;;;18.30;39.20;100934.84;5028039;28;20060;-68
2022/12/08 02:23:26;;;;;;;4.70;2.45;;;;;;;18.30;39.20;100929.56;5018458;28;20029;-68
2022/12/08 02:25:57;;;;;;;4.45;2.25;;;;;;;18.26;39.03;100925.53;5026896;28;20045;-68
2022/12/08 02:28:34;;;;;;;4.60;1.98;;;;;;;18.26;39.41;100922.88;5023779;28;20041;-66
2022/12/08 02:31:10;;;;;;;5.18;2.47;;;;;;;18.27;39.07;100914.00;5025139;28;20462;-69
2022/12/08 02:33:54;;;;;;;4.35;2.10;;;;;;;18.28;39.22;100914.84;5032490;28;20025;-68
2022/12/08 02:36:40;;;;;;;3.88;2.20;;;;;;;18.27;39.10;100921.06;5043468;28;20136;-68
2022/12/08 02:39:24;;;;;;;4.03;2.15;;;;;;;18.22;39.11;100899.50;5021237;28;20103;-65
2022/12/08 02:41:59;;;;;;;4.38;2.13;;;;;;;18.24;39.13;100905.50;5034034;28;20373;-66
2022/12/08 02:44:35;;;;;;;4.20;2.15;;;;;;;18.22;39.12;100896.88;5029508;28;20036;-67
2022/12/08 02:47:10;;;;;;;3.05;1.80;;;;;;;18.22;39.05;100899.50;5043750;28;20539;-67
2022/12/08 02:49:35;;;;;;;;;;;;;;;18.27;38.81;100900.78;5031020;28;20407;-67
2022/12/08 02:52:26;;;;;;;3.57;1.83;;;;;;;18.24;39.05;100894.94;5029539;28;19971;-67
2022/12/08 02:55:04;;;;;;;4.13;1.92;;;;;;;18.19;39.08;100890.03;5024248;28;20310;-68
2022/12/08 02:57:53;;;;;;;3.88;1.90;;;;;;;18.21;39.01;100889.91;5039777;28;20063;-69
2022/12/08 03:00:21;;;;;;;3.47;1.80;;;;;;;18.19;38.84;100876.03;5026160;28;20034;-68
2022/12/08 03:03:11;;;;;;;3.60;1.88;;;;;;;18.19;39.01;100881.28;5035538;28;20072;-69
2022/12/08 03:05:49;;;;;;;4.20;1.83;;;;;;;18.17;39.09;100881.41;5037511;28;20028;-67
2022/12/08 03:08:17;;;;;;;3.92;1.50;;;;;;;18.17;39.14;100870.03;5030741;28;20147;-67
2022/12/08 03:10:52;;;;;;;3.47;1.73;;;;;;;18.11;39.24;100866.91;5038909;28;20034;-67
2022/12/08 03:13:33;;;;;;;3.45;1.70;;;;;;;18.15;39.18;100877.22;5041728;28;20083;-67
2022/12/08 03:16:00;;;;;;;3.63;1.83;;;;;;;18.11;38.94;100872.19;5037605;28;20064;-66
2022/12/08 03:18:30;;;;;;;3.28;1.67;;;;;;;18.12;38.97;100871.22;5030056;28;20041;-68
2022/12/08 03:20:56;;;;;;;3.60;1.85;;;;;;;18.12;39.02;100867.78;5019553;28;20033;-67
2022/12/08 03:23:24;;;;;;;3.47;1.80;;;;;;;18.09;39.11;100860.94;5033451;28;20029;-67
2022/12/08 03:26:00;;;;;;;3.63;1.67;;;;;;;18.08;38.91;100859.25;5041353;28;20041;-68
2022/12/08 03:28:26;;;;;;;3.88;1.70;;;;;;;18.08;39.05;100861.88;5036792;28;20044;-68
2022/12/08 03:30:56;;;;;;;3.67;1.92;;;;;;;18.10;38.95;100864.41;5042618;28;20033;-66
2022/12/08 03:33:30;;;;;;;3.38;1.60;;;;;;;18.08;38.73;100861.88;5037327;28;20037;-67
2022/12/08 03:35:58;;;;;;;3.47;1.90;;;;;;;18.07;38.91;100846.19;5024705;28;20049;-69
2022/12/08 03:38:24;;;;;;;3.28;1.73;;;;;;;18.07;38.87;100847.03;5042285;28;20045;-66
2022/12/08 03:41:17;;;;;;;3.85;1.90;;;;;;;18.07;39.18;100849.69;5032096;28;20033;-66
2022/12/08 03:43:35;;;;;;;3.38;1.77;;;;;;;18.06;38.79;100841.88;5037725;28;20465;-68
2022/12/08 03:46:00;;;;;;;4.00;1.90;;;;;;;18.06;38.86;100840.06;5033028;28;20079;-67
2022/12/08 03:48:25;;;;;;;4.13;2.20;;;;;;;18.09;38.70;100850.38;5042119;28;20025;-67
2022/12/08 03:50:51;;;;;;;5.38;2.60;;;;;;;18.05;39.11;100832.28;5042231;28;20577;-67
2022/12/08 03:53:16;;;;;;;4.28;2.53;;;;;;;18.02;38.75;100836.00;5024171;28;20799;-68
2022/12/08 03:55:41;;;;;;;4.15;2.30;;;;;;;18.05;39.04;100832.28;5022495;28;20029;-67
2022/12/08 03:58:07;;;;;;;4.63;2.53;;;;;;;18.04;39.12;100834.09;5030012;28;20037;-68
2022/12/08 04:00:32;;;;;;;4.90;2.90;;;;;;;18.04;38.82;100830.59;5041926;28;20060;-68
2022/12/08 04:02:57;;;;;;;5.97;2.55;;;;;;;18.03;39.04;100837.69;5042193;28;20262;-69
2022/12/08 04:05:23;;;;;;;4.32;2.75;;;;;;;18.03;38.86;100826.31;5024792;28;20083;-67
2022/12/08 04:07:48;;;;;;;5.45;2.97;;;;;;;18.01;39.04;100820.31;5034289;28;20444;-67
2022/12/08 04:10:13;;;;;;;4.82;3.00;;;;;;;18.02;38.84;100824.63;5029529;28;20040;-68
2022/12/08 04:12:38;;;;;;;6.00;3.15;;;;;;;17.96;38.78;100812.78;5024866;28;20437;-67
2022/12/08 04:15:04;;;;;;;5.00;3.03;;;;;;;18.02;39.03;100819.34;5031219;28;20029;-67
2022/12/08 04:17:29;;;;;;;5.40;3.05;;;;;;;18.03;39.07;100821.03;5040916;28;20345;-68
2022/12/08 04:19:55;;;;;;;5.10;3.15;;;;;;;17.99;38.82;100815.19;5030178;28;20116;-67
2022/12/08 04:22:20;;;;;;;5.03;3.13;;;;;;;17.99;38.78;100815.19;5035620;28;20025;-68
2022/12/08 04:24:45;;;;;;;4.68;2.92;;;;;;;18.00;38.81;100829.19;5022176;28;20022;-69
2022/12/08 04:27:11;;;;;;;5.15;3.03;;;;;;;17.99;38.81;100817.81;5038904;28;20164;-68
2022/12/08 04:29:36;;;;;;;4.68;2.72;;;;;;;17.99;39.05;100814.31;5037423;28;20525;-66
2022/12/08 04:32:01;;;;;;;4.20;2.75;;;;;;;18.00;38.83;100819.47;5027923;28;20222;-66
2022/12/08 04:34:26;;;;;;;4.57;3.00;;;;;;;17.98;38.99;100804.75;5032992;28;20033;-67
2022/12/08 04:36:52;;;;;;;4.80;3.08;;;;;;;17.89;38.69;100795.78;5024073;28;20053;-67
2022/12/08 04:39:17;;;;;;;5.07;3.10;;;;;;;17.98;38.90;100808.22;5030233;28;20040;-66
2022/12/08 04:41:42;;;;;;;4.90;2.95;;;;;;;17.97;39.04;100809.19;5028180;28;20064;-69
2022/12/08 04:44:07;;;;;;;6.07;2.88;;;;;;;17.95;38.89;100792.66;5036078;28;20037;-67
2022/12/08 04:46:33;;;;;;;5.25;3.00;;;;;;;17.97;38.76;100800.44;5025049;28;20573;-67
2022/12/08 04:48:58;;;;;;;4.22;2.75;;;;;;;17.97;38.90;100796.00;5024618;28;20057;-66
2022/12/08 04:51:23;;;;;;;5.63;2.80;;;;;;;17.97;38.91;100776.72;5021977;28;20185;-66
2022/12/08 04:53:48;;;;;;;4.50;2.33;;;;;;;17.96;39.13;100789.06;5031513;28;20024;-67
2022/12/08 04:56:16;;;;;;;4.20;2.53;;;;;;;17.93;38.71;100794.59;5038700;28;20025;-67
2022/12/08 04:58:42;;;;;;;4.00;2.30;;;;;;;17.93;39.04;100802.50;5036625;28;20389;-67
2022/12/08 05:01:08;;;;;;;4.05;2.15;;;;;;;17.94;39.04;100791.81;5038615;28;20496;-68
2022/12/08 05:03:33;;;;;;;4.63;2.67;;;;;;;17.92;38.92;100780.53;5034997;28;20033;-68
2022/12/08 05:06:00;;;;;;;3.60;2.20;;;;;;;17.90;38.71;100776.38;5032479;28;20034;-68
2022/12/08 05:08:25;;;;;;;3.55;1.80;;;;;;;17.92;39.01;100785.00;5032773;28;20025;-65
2022/12/08 05:10:51;;;;;;;4.28;2.22;;;;;;;17.90;38.94;100784.28;5030546;28;20127;-65
2022/12/08 05:13:16;;;;;;;3.53;1.88;;;;;;;17.89;39.01;100796.59;5041299;28;20786;-67
2022/12/08 05:15:41;;;;;;;4.03;2.10;;;;;;;17.92;38.65;100792.91;5039272;28;20028;-68
2022/12/08 05:18:07;;;;;;;3.42;1.60;;;;;;;17.89;38.80;100793.97;5026363;28;20114;-67
2022/12/08 05:20:33;;;;;;;3.45;1.63;;;;;;;17.91;38.85;100786.81;5026569;28;20072;-67
2022/12/08 05:22:58;;;;;;;3.25;1.80;;;;;;;17.89;38.75;100787.88;5027441;28;20029;-67
2022/12/08 05:25:23;;;;;;;3.72;1.60;;;;;;;17.88;38.55;100780.91;5040175;28;20112;-67
2022/12/08 05:27:49;;;;;;;3.38;1.67;;;;;;;17.89;38.82;100779.97;5033920;28;20463;-68
2022/12/08 05:30:14;;;;;;;3.70;1.70;;;;;;;17.89;39.01;100779.97;5034672;28;20040;-67
2022/12/08 05:32:39;;;;;;;3.95;1.70;;;;;;;17.88;38.75;100778.28;5012310;28;21018;-69
2022/12/08 05:35:05;;;;;;;2.78;1.48;;;;;;;17.88;38.61;100775.63;5030320;28;20049;-67
2022/12/08 05:37:30;;;;;;;3.97;1.70;;;;;;;17.87;38.81;100781.88;5030230;28;20048;-66
2022/12/08 05:39:56;;;;;;;2.85;1.58;;;;;;;17.86;38.76;100782.81;5027946;28;20895;-67
2022/12/08 05:42:21;;;;;;;3.40;1.53;;;;;;;17.87;38.54;100777.41;5029535;28;20040;-66
2022/12/08 05:44:46;;;;;;;2.53;1.33;;;;;;;17.85;38.94;100774.06;5026592;28;20777;-67
2022/12/08 05:47:11;;;;;;;2.95;1.70;;;;;;;17.87;38.98;100776.59;5027000;28;20064;-69
2022/12/08 05:49:37;;;;;;;3.05;1.60;;;;;;;17.87;38.66;100781.88;5030577;28;20086;-67
2022/12/08 05:52:02;;;;;;;2.70;1.45;;;;;;;17.90;38.95;100774.56;5020902;28;20060;-67
2022/12/08 05:54:27;;;;;;;2.75;1.20;;;;;;;17.91;38.92;100772.75;5027573;28;20029;-66
2022/12/08 05:56:53;;;;;;;2.35;1.10;;;;;;;17.94;39.21;100772.50;5037111;28;20746;-68
2022/12/08 05:59:18;;;;;;;3.45;1.42;;;;;;;17.98;39.13;100779.22;5026972;28;20033;-67
2022/12/08 06:01:43;;;;;;;2.03;1.10;;;;;;;18.03;39.47;100778.84;5032876;28;20172;-67
2022/12/08 06:04:08;;;;;;;3.03;1.30;;;;;;;18.06;39.46;100771.50;5041186;28;20028;-66
2022/12/08 06:06:34;;;;;;;2.55;1.10;;;;;;;18.10;39.41;100772.09;5031487;28;20137;-66
2022/12/08 06:09:02;;;;;;;2.25;1.10;;;;;;;18.12;39.15;100771.00;5034603;28;20400;-68
2022/12/08 06:11:29;;;;;;;2.20;1.00;;;;;;;18.15;39.20;100769.94;5024057;28;20581;-67
2022/12/08 06:13:55;;;;;;;2.35;1.08;;;;;;;18.18;39.32;100761.75;5037234;28;20029;-66
2022/12/08 06:16:22;;;;;;;3.50;1.25;;;;;;;18.19;39.27;100758.16;5028237;28;20694;-67
2022/12/08 06:18:47;;;;;;;2.55;1.17;;;;;;;18.21;39.18;100753.56;5025964;28;20083;-66
2022/12/08 06:21:13;;;;;;;1.67;1.00;;;;;;;18.26;39.09;100761.09;5030998;28;20048;-66
2022/12/08 06:23:39;;;;;;;2.03;0.93;;;;;;;18.27;38.93;100766.25;5029324;28;20052;-67
2022/12/08 06:26:10;;;;;;;2.50;1.00;;;;;;;18.30;38.94;100766.00;5035868;28;21250;-67
2022/12/08 06:28:36;;;;;;;3.30;0.98;;;;;;;18.34;38.99;100758.69;5023699;28;20025;-67
2022/12/08 06:31:07;;;;;;;1.88;0.90;;;;;;;18.37;39.05;100753.13;5032471;28;20496;-69
2022/12/08 06:33:33;;;;;;;4.15;1.00;;;;;;;18.39;39.04;100750.38;5039284;28;20374;-66
2022/12/08 06:35:58;;;;;;;1.42;0.80;;;;;;;18.42;38.96;100755.38;5033610;28;20045;-68
2022/12/08 06:38:23;;;;;;;2.08;1.05;;;;;;;18.43;38.85;100755.25;5038770;28;20455;-71
2022/12/08 06:40:56;;;;;;;1.48;0.90;;;;;;;18.45;39.08;100756.00;5015317;28;20458;-69
2022/12/08 06:43:21;;;;;;;2.63;0.95;;;;;;;18.52;38.87;100766.84;5041262;28;20108;-67
2022/12/08 06:45:47;;;;;;;2.45;0.93;;;;;;;18.51;38.65;100767.00;5033571;28;20127;-69
2022/12/08 06:48:12;;;;;;;2.08;0.90;;;;;;;18.51;39.02;100764.34;5032358;28;20108;-67
2022/12/08 06:50:37;;;;;;;2.33;1.00;;;;;;;18.54;39.03;100764.09;5027541;28;20049;-67
2022/12/08 06:53:03;;;;;;;1.70;0.82;;;;;;;18.56;39.51;100762.16;5044044;28;20040;-68
2022/12/08 06:55:28;;;;;;;2.17;1.00;;;;;;;18.57;39.47;100758.56;5034588;28;20541;-67
2022/12/08 06:57:53;;;;;;;2.20;0.98;;;;;;;18.59;39.69;100752.16;5030380;28;20030;-68
2022/12/08 07:00:19;;;;;;;1.60;0.80;;;;;;;18.62;39.50;100753.72;5023522;28;20976;-66
2022/12/08 07:02:44;;;;;;;2.22;0.90;;;;;;;18.62;39.53;100745.81;5032570;28;20037;-68
2022/12/08 07:05:09;;;;;;;2.35;0.90;;;;;;;18.65;39.51;100750.81;5036687;28;20842;-68
2022/12/08 07:07:34;;;;;;;1.30;0.80;;;;;;;18.66;39.65;100750.69;5043326;28;20029;-66
2022/12/08 07:10:00;;;;;;;1.63;0.80;;;;;;;18.67;39.51;100749.75;5023801;28;20065;-67
2022/12/08 07:12:25;;;;;;;2.25;0.80;;;;;;;18.67;39.43;100755.00;5013212;28;20034;-66
2022/12/08 07:14:50;;;;;;;1.87;0.87;;;;;;;18.66;39.51;100753.34;5038262;28;20040;-66
2022/12/08 07:17:15;;;;;;;1.20;0.70;;;;;;;18.66;39.53;100753.34;5039993;28;20759;-69
2022/12/08 07:19:41;;;;;;;2.47;1.10;;;;;;;18.70;39.63;100758.34;5027832;28;20043;-69
2022/12/08 07:22:06;;;;;;;1.52;0.80;;;;;;;18.73;39.59;100758.09;5043058;28;20265;-68
2022/12/08 07:24:32;;;;;;;4.47;0.98;;;;;;;18.73;39.77;100750.19;5041816;28;20459;-65
2022/12/08 07:26:57;;;;;;;3.00;0.82;;;;;;;18.75;40.01;100762.25;5029180;28;20067;-70
2022/12/08 07:29:22;;;;;;;2.55;0.80;;;;;;;18.75;40.13;100756.16;5034891;28;20065;-66
2022/12/08 07:31:47;;;;;;;3.10;0.97;;;;;;;18.74;40.06;100757.97;5028737;28;20375;-66
2022/12/08 07:34:13;;;;;;;2.17;0.98;;;;;;;18.78;39.92;100761.16;5037762;28;20266;-67
2022/12/08 07:36:38;;;;;;;1.75;0.95;;;;;;;18.77;40.14;100757.69;5041640;28;20548;-68
2022/12/08 07:39:03;;;;;;;3.70;1.13;;;;;;;18.78;40.19;100755.88;5036093;28;20032;-67
2022/12/08 07:41:29;;;;;;;4.18;1.20;;;;;;;18.81;40.32;100755.63;5029852;28;20037;-68
2022/12/08 07:43:55;;;;;;;3.65;1.20;;;;;;;18.82;40.02;100750.22;5034824;28;20078;-67
2022/12/08 07:46:23;;;;;;;2.65;1.00;;;;;;;18.83;40.12;100751.91;5027511;28;20034;-68
2022/12/08 07:48:48;;;;;;;4.10;1.30;;;;;;;18.83;40.25;100754.53;5032843;28;20033;-67
2022/12/08 07:51:15;;;;;;;11.60;1.70;;;;;;;18.84;40.42;100755.41;5031238;28;20032;-69
2022/12/08 07:53:42;;;;;;;3.50;1.10;;;;;;;18.82;40.43;100755.50;5037174;28;20032;-68
2022/12/08 07:56:09;;;;;;;2.40;1.02;;;;;;;18.82;40.32;100757.31;5017382;28;20032;-67
2022/12/08 07:58:34;;;;;;;2.22;1.00;;;;;;;18.81;40.38;100767.00;5039182;28;20037;-68
2022/12/08 08:01:00;;;;;;;3.92;1.20;;;;;;;18.81;40.17;100767.00;5031940;28;20087;-68
2022/12/08 08:03:25;;;;;;;3.75;1.42;;;;;;;18.81;40.38;100766.19;5025485;28;20048;-68
2022/12/08 08:05:50;;;;;;;2.97;1.20;;;;;;;18.81;40.36;100771.47;5025673;28;20041;-67
2022/12/08 08:08:16;;;;;;;3.10;1.20;;;;;;;18.82;40.21;100766.06;5034779;28;20386;-67
2022/12/08 08:10:42;;;;;;;3.28;1.40;;;;;;;18.82;40.36;100762.59;5023475;28;20033;-69
2022/12/08 08:13:08;;;;;;;5.47;1.70;;;;;;;18.83;40.18;100764.25;5023856;28;20470;-68
2022/12/08 08:15:33;;;;;;;3.65;1.60;;;;;;;18.81;40.20;100766.19;5026914;28;20460;-69
2022/12/08 08:17:59;;;;;;;3.72;1.38;;;;;;;18.80;40.19;100765.38;5030062;28;20038;-66
2022/12/08 08:20:24;;;;;;;3.75;1.50;;;;;;;18.80;40.25;100765.38;5004144;28;20103;-68
2022/12/08 08:22:50;;;;;;;2.92;1.30;;;;;;;18.78;40.38;100769.09;5026989;28;20370;-65
2022/12/08 08:25:17;;;;;;;6.28;1.60;;;;;;;18.80;40.11;100764.50;5025350;28;20037;-66
2022/12/08 08:27:44;;;;;;;3.85;1.30;;;;;;;18.82;40.08;100773.16;5024580;28;20041;-67
2022/12/08 08:30:11;;;;;;;5.18;1.67;;;;;;;18.81;40.11;100768.84;5019875;28;20537;-66
2022/12/08 08:32:37;;;;;;;4.25;1.60;;;;;;;18.82;40.25;100773.16;5023322;28;20487;-66
2022/12/08 08:35:03;;;;;;;2.65;1.25;;;;;;;18.81;40.07;100768.84;5027656;28;20049;-64
2022/12/08 08:37:28;;;;;;;4.07;1.67;;;;;;;18.85;39.91;100765.00;5031343;28;20035;-67
2022/12/08 08:39:54;;;;;;;2.67;1.25;;;;;;;18.87;40.09;100767.47;5023035;28;20025;-67
2022/12/08 08:42:19;;;;;;;5.25;1.50;;;;;;;18.88;39.79;100759.44;5027852;28;20033;-67
2022/12/08 08:44:44;;;;;;;3.92;1.85;;;;;;;18.91;39.77;100764.44;5027889;28;20064;-68
2022/12/08 08:47:10;;;;;;;3.20;1.40;;;;;;;18.90;39.71;100761.94;5025496;28;20029;-68
2022/12/08 08:49:36;;;;;;;3.65;1.52;;;;;;;18.91;39.90;100761.00;5026705;28;20221;-69
2022/12/08 08:52:03;;;;;;;4.32;1.50;;;;;;;18.94;39.83;100760.72;5026678;28;20034;-65
2022/12/08 08:54:28;;;;;;;4.53;1.40;;;;;;;18.93;39.85;100765.19;5025424;28;20033;-68
2022/12/08 08:56:55;;;;;;;3.33;1.73;;;;;;;18.98;39.87;100770.06;5017874;28;20040;-65
2022/12/08 08:59:20;;;;;;;5.70;2.13;;;;;;;18.98;39.93;100765.63;5024605;28;20037;-69
2022/12/08 09:01:46;;;;;;;7.38;1.92;;;;;;;18.98;39.95;100764.78;5027911;28;20378;-68
2022/12/08 09:04:11;;;;;;;4.38;1.50;;;;;;;18.99;39.82;100762.00;5025256;28;20911;-66
2022/12/08 09:06:36;;;;;;;3.08;1.40;;;;;;;19.03;39.86;100762.56;5026590;28;20541;-68
2022/12/08 09:09:02;;;;;;;5.10;1.67;;;;;;;19.01;39.74;100754.78;5023126;28;20094;-67
2022/12/08 09:11:28;;;;;;;5.10;1.77;;;;;;;19.02;39.85;100753.78;5021704;28;20041;-68
2022/12/08 09:13:53;;;;;;;5.35;1.60;;;;;;;19.05;39.94;100751.88;5018031;28;20477;-68
2022/12/08 09:16:20;;;;;;;5.85;1.50;;;;;;;19.05;39.62;100757.16;5028250;28;20041;-67
2022/12/08 09:18:47;;;;;;;3.85;1.70;;;;;;;19.05;39.54;100754.53;5025875;28;20044;-68
2022/12/08 09:21:21;;;;;;;5.03;1.98;;;;;;;19.02;39.36;100752.97;5005534;28;20071;-70
2022/12/08 09:23:47;;;;;;;3.20;1.65;;;;;;;19.05;39.54;100757.16;5024997;28;20131;-70
2022/12/08 09:26:12;;;;;;;3.22;1.55;;;;;;;19.02;39.55;100759.09;5011217;28;20606;-71
2022/12/08 09:28:37;;;;;;;3.15;1.75;;;;;;;19.05;39.67;100759.81;5023440;28;20065;-66
2022/12/08 09:31:03;;;;;;;6.38;1.95;;;;;;;19.03;39.34;100758.13;5021588;28;20040;-67
2022/12/08 09:33:29;;;;;;;4.03;1.98;;;;;;;19.03;39.42;100747.56;5023036;28;20140;-67
2022/12/08 09:35:54;;;;;;;4.53;2.20;;;;;;;19.06;39.52;100751.75;5007901;28;20482;-69
2022/12/08 09:38:20;;;;;;;5.38;2.20;;;;;;;19.08;39.43;100748.97;5031366;28;20036;-67
2022/12/08 09:40:51;;;;;;;3.80;1.95;;;;;;;19.06;39.46;100753.53;5023886;28;20029;-69
2022/12/08 09:43:43;;;;;;;3.33;1.98;;;;;;;19.07;39.30;100750.75;5032217;28;20104;-70
2022/12/08 09:46:13;;;;;;;5.45;2.45;;;;;;;19.07;39.03;100755.22;5021052;28;20040;-68
2022/12/08 09:48:42;;;;;;;6.45;2.30;;;;;;;19.06;39.07;100748.25;5022083;28;20026;-69
2022/12/08 09:51:09;;;;;;;4.38;2.30;;;;;;;19.09;39.43;100759.41;5023566;28;20030;-68
2022/12/08 09:53:46;;;;;;;4.55;2.50;;;;;;;19.02;39.51;100752.97;5030327;28;20121;-68
2022/12/08 09:56:18;;;;;;;4.72;2.47;;;;;;;18.94;39.32;100744.88;5033886;28;20488;-68
2022/12/08 09:58:58;;;;;;;4.80;2.78;;;;;;;18.94;39.21;100734.31;5033744;28;20040;-69
2022/12/08 10:01:40;;;;;;;6.78;2.92;;;;;;;18.96;39.02;100749.06;5030167;28;20037;-70
2022/12/08 10:04:22;;;;;;;7.90;3.47;;;;;;;18.94;39.21;100744.88;5017673;28;20044;-70
2022/12/08 10:07:01;;;;;;;6.38;2.80;;;;;;;18.92;39.36;100745.00;5024658;28;20095;-71
2022/12/08 10:09:40;;;;;;;5.35;3.35;;;;;;;18.90;39.13;100748.75;5021008;28;20032;-66
2022/12/08 10:12:33;;;;;;;7.90;3.60;;;;;;;18.91;38.83;100739.88;5013087;28;20037;-67
2022/12/08 10:15:16;;;;;;;6.40;3.53;;;;;;;18.90;39.09;100738.19;5029558;28;20477;-70
2022/12/08 10:17:47;;;;;;;5.72;3.45;;;;;;;18.92;39.44;100737.09;5023474;28;20033;-67
2022/12/08 10:20:18;;;;;;;6.25;3.38;;;;;;;18.92;39.29;100733.63;5041710;28;20034;-70
2022/12/08 10:22:49;;;;;;;5.82;3.50;;;;;;;18.92;39.39;100737.09;5016543;28;20040;-68
2022/12/08 10:25:27;;;;;;;5.25;3.60;;;;;;;18.93;39.34;100733.50;5009198;28;20552;-66
2022/12/08 10:27:53;;;;;;;5.85;4.40;;;;;;;18.90;38.77;100727.63;5022401;28;20040;-65
2022/12/08 10:30:21;;;;;;;8.90;3.88;;;;;;;18.91;38.79;100724.03;5021202;28;20855;-67
2022/12/08 10:32:51;;;;;;;6.75;3.83;;;;;;;18.95;39.51;100728.06;5017108;28;20436;-67
2022/12/08 10:35:19;;;;;;;6.82;3.65;;;;;;;18.92;39.41;100723.88;5033334;28;20083;-67
2022/12/08 10:38:05;;;;;;;6.07;3.88;;;;;;;18.94;39.48;100721.94;5029337;28;20048;-67
2022/12/08 10:40:35;;;;;;;6.00;3.58;;;;;;;18.95;39.01;100720.97;5021177;28;21085;-69
2022/12/08 10:43:01;;;;;;;6.22;3.53;;;;;;;18.96;39.22;100719.16;5030693;28;20029;-67
2022/12/08 10:45:37;;;;;;;8.15;3.65;;;;;;;18.92;39.41;100721.25;5033015;28;20033;-67
2022/12/08 10:48:08;;;;;;;8.13;3.78;;;;;;;18.93;39.34;100716.78;5023041;28;20539;-66
2022/12/08 10:50:41;;;;;;;6.95;3.60;;;;;;;18.98;39.07;100723.34;5024371;28;20033;-68
2022/12/08 10:53:06;;;;;;;5.43;3.28;;;;;;;18.99;39.20;100724.19;5024876;28;20560;-67
2022/12/08 10:55:40;;;;;;;6.53;3.43;;;;;;;18.96;39.26;100716.53;5019282;28;20037;-68
2022/12/08 10:58:21;;;;;;;;;;;;;;;19.06;39.01;100727.13;5021764;28;21052;-67
2022/12/08 11:00:52;;;;;;;5.32;3.38;;;;;;;19.00;39.21;100725.88;5033722;28;19916;-65
2022/12/08 11:03:47;;;;;;;6.38;3.55;;;;;;;18.97;38.94;100726.97;5027419;28;20047;-68
2022/12/08 11:06:22;;;;;;;4.97;3.05;;;;;;;18.96;39.22;100722.66;5015649;28;20041;-67
2022/12/08 11:08:58;;;;;;;5.35;3.40;;;;;;;18.98;38.94;100720.72;5026476;28;20472;-69
2022/12/08 11:11:48;;;;;;;6.45;3.00;;;;;;;18.98;39.13;100714.59;5034942;28;20091;-66
2022/12/08 11:14:32;;;;;;;6.45;3.33;;;;;;;18.95;39.16;100715.69;5014067;28;20029;-67
2022/12/08 11:17:08;;;;;;;8.13;3.07;;;;;;;18.95;39.13;100704.31;5030951;28;20040;-71
2022/12/08 11:19:38;;;;;;;4.43;2.80;;;;;;;18.95;39.34;100699.03;5027347;28;20064;-70
2022/12/08 11:22:31;;;;;;;6.43;2.90;;;;;;;18.97;38.87;100702.38;5017539;28;20037;-67
2022/12/08 11:25:23;;;;;;;4.90;3.15;;;;;;;18.93;39.18;100695.66;5031203;28;20025;-72
2022/12/08 11:27:52;;;;;;;6.30;3.10;;;;;;;18.92;38.97;100696.66;5009815;28;20042;-66
2022/12/08 11:30:29;;;;;;;5.00;3.38;;;;;;;18.91;38.98;100694.97;5031456;28;20037;-66
2022/12/08 11:33:18;;;;;;;4.78;2.97;;;;;;;18.93;39.22;100683.31;5022492;28;20095;-69
2022/12/08 11:35:46;;;;;;;8.85;3.25;;;;;;;18.94;39.02;100681.50;5019240;28;20057;-69
2022/12/08 11:38:22;;;;;;;5.20;3.30;;;;;;;18.96;39.01;100688.34;5021161;28;20067;-70